Time;durP1;ratioP1;P1;durP2;ratioP2;P2;SDS_P1;SDS_P2;PMS_P1;PMS_P2;Temp;Humidity;BMP_temperature;BMP_pressure;BME280_temperature;BME280_humidity;BME280_pressure;Samples;Min_cycle;Max_cycle;Signal;HPM_P1;HPM_P2
2022/09/01 00:02:07;;;;;;;18.33;10.25;;;;;;;;;;6144989;23;20491;-87
2022/09/01 00:05:13;;;;;;;16.88;10.55;;;;;;;;;;6145075;23;20183;-88
2022/09/01 00:08:18;;;;;;;14.05;9.63;;;;;;;;;;6146830;23;20246;-89
2022/09/01 00:11:25;;;;;;;22.98;10.77;;;;;;;;;;6161903;23;20245;-88
2022/09/01 00:14:31;;;;;;;20.38;10.63;;;;;;;;;;6146064;23;20168;-88
2022/09/01 00:17:36;;;;;;;17.13;10.45;;;;;;;;;;6146153;23;20168;-90
2022/09/01 00:20:42;;;;;;;17.85;10.80;;;;;;;;;;6146668;23;20172;-86
2022/09/01 00:23:47;;;;;;;18.80;11.18;;;;;;;;;;6144948;23;20223;-89
2022/09/01 00:26:53;;;;;;;20.67;10.23;;;;;;;;;;6146602;23;20655;-88
2022/09/01 00:29:58;;;;;;;16.30;11.05;;;;;;;;;;6146454;23;20168;-89
2022/09/01 00:33:03;;;;;;;22.95;10.65;;;;;;;;;;6145819;23;20184;-87
2022/09/01 00:36:10;;;;;;;17.38;10.68;;;;;;;;;;6145896;23;20183;-89
2022/09/01 00:39:15;;;;;;;18.42;10.98;;;;;;;;;;6147327;23;20164;-88
2022/09/01 00:42:20;;;;;;;21.00;11.27;;;;;;;;;;6145638;23;20180;-89
2022/09/01 00:45:25;;;;;;;18.15;10.57;;;;;;;;;;6147155;23;20682;-89
2022/09/01 00:48:31;;;;;;;17.77;10.30;;;;;;;;;;6146305;23;20291;-88
2022/09/01 00:51:40;;;;;;;23.42;10.65;;;;;;;;;;6146953;23;20185;-90
2022/09/01 00:54:50;;;;;;;15.15;9.95;;;;;;;;;;6164858;23;20243;-89
2022/09/01 00:57:55;;;;;;;21.95;10.18;;;;;;;;;;6146356;23;20732;-88
2022/09/01 01:01:04;;;;;;;15.82;9.90;;;;;;;;;;6148161;23;20156;-88
2022/09/01 01:04:13;;;;;;;18.30;10.00;;;;;;;;;;6148398;23;20181;-87
2022/09/01 01:07:21;;;;;;;14.05;9.63;;;;;;;;;;6147450;23;20208;-90
2022/09/01 01:10:27;;;;;;;12.90;8.98;;;;;;;;;;6166282;23;20180;-89
2022/09/01 01:13:35;;;;;;;18.80;10.25;;;;;;;;;;6165661;23;20292;-87
2022/09/01 01:16:43;;;;;;;14.38;9.45;;;;;;;;;;6149509;23;20155;-87
2022/09/01 01:23:20;;;;;;;15.00;9.38;;;;;;;;;;6145107;23;20155;-88
2022/09/01 01:26:27;;;;;;;17.13;9.35;;;;;;;;;;6145010;23;20173;-86
2022/09/01 01:29:33;;;;;;;19.90;9.98;;;;;;;;;;6145483;23;20168;-87
2022/09/01 01:32:41;;;;;;;15.90;9.65;;;;;;;;;;6144949;23;20168;-87
2022/09/01 01:35:47;;;;;;;14.68;9.25;;;;;;;;;;6162507;23;20173;-89
2022/09/01 01:38:52;;;;;;;17.92;9.93;;;;;;;;;;6160934;23;20219;-88
2022/09/01 01:41:59;;;;;;;17.95;9.13;;;;;;;;;;6162537;23;20616;-89
2022/09/01 01:45:06;;;;;;;22.08;10.02;;;;;;;;;;6145298;23;20239;-88
2022/09/01 01:48:12;;;;;;;17.33;10.00;;;;;;;;;;6161873;23;20196;-87
2022/09/01 01:51:18;;;;;;;16.83;9.52;;;;;;;;;;6162788;23;20541;-87
2022/09/01 01:54:30;;;;;;;16.25;10.10;;;;;;;;;;6161761;23;20184;-89
2022/09/01 01:57:36;;;;;;;17.73;10.43;;;;;;;;;;6162275;23;20499;-89
2022/09/01 02:00:46;;;;;;;16.90;9.90;;;;;;;;;;6161144;23;20211;-88
2022/09/01 02:03:53;;;;;;;15.18;10.13;;;;;;;;;;6162182;23;20691;-88
2022/09/01 02:06:58;;;;;;;13.35;9.27;;;;;;;;;;6164803;23;20293;-87
2022/09/01 02:10:04;;;;;;;18.70;10.15;;;;;;;;;;6163135;23;20243;-88
2022/09/01 02:13:15;;;;;;;17.98;10.15;;;;;;;;;;6164099;23;20172;-87
2022/09/01 02:16:21;;;;;;;18.35;9.85;;;;;;;;;;6160577;23;20172;-87
2022/09/01 02:19:25;;;;;;;18.20;10.45;;;;;;;;;;6160921;23;20172;-88
2022/09/01 02:22:30;;;;;;;16.40;10.00;;;;;;;;;;6160686;23;20176;-88
2022/09/01 02:25:37;;;;;;;16.70;10.05;;;;;;;;;;6160614;23;20357;-88
2022/09/01 02:28:45;;;;;;;15.30;9.55;;;;;;;;;;6159008;23;20192;-88
2022/09/01 02:31:52;;;;;;;15.18;10.02;;;;;;;;;;6160542;23;20173;-88
2022/09/01 02:35:00;;;;;;;21.10;11.13;;;;;;;;;;6160775;23;20698;-87
2022/09/01 02:38:07;;;;;;;19.58;10.48;;;;;;;;;;6160894;23;20648;-86
2022/09/01 02:41:13;;;;;;;24.48;10.68;;;;;;;;;;6160758;23;20264;-87
2022/09/01 02:44:21;;;;;;;15.57;10.20;;;;;;;;;;6161046;23;20249;-87
2022/09/01 02:47:27;;;;;;;19.10;10.48;;;;;;;;;;6161373;23;20222;-87
2022/09/01 02:50:33;;;;;;;16.13;9.95;;;;;;;;;;6162943;23;20172;-87
2022/09/01 02:53:41;;;;;;;17.15;10.38;;;;;;;;;;6162366;23;20261;-87
2022/09/01 02:56:47;;;;;;;17.55;9.82;;;;;;;;;;6161933;23;20220;-86
2022/09/01 02:59:57;;;;;;;14.98;8.93;;;;;;;;;;6161479;23;20173;-87
2022/09/01 03:03:04;;;;;;;15.13;9.13;;;;;;;;;;6161237;23;20164;-87
2022/09/01 03:06:11;;;;;;;15.07;9.65;;;;;;;;;;6162420;23;20178;-87
2022/09/01 03:09:17;;;;;;;17.80;9.93;;;;;;;;;;6162019;23;20192;-88
2022/09/01 03:12:23;;;;;;;16.85;9.77;;;;;;;;;;6161488;23;20176;-87
2022/09/01 03:15:32;;;;;;;14.30;9.50;;;;;;;;;;6161592;23;20180;-86
2022/09/01 03:18:38;;;;;;;18.13;10.77;;;;;;;;;;6161554;23;20152;-88
2022/09/01 03:21:44;;;;;;;17.80;11.05;;;;;;;;;;6162609;23;20172;-86
2022/09/01 03:24:51;;;;;;;15.40;10.02;;;;;;;;;;6162404;23;20555;-87
2022/09/01 03:28:00;;;;;;;17.33;10.55;;;;;;;;;;6161259;23;20192;-87
2022/09/01 03:31:07;;;;;;;16.40;10.38;;;;;;;;;;6162425;23;20217;-88
2022/09/01 03:34:15;;;;;;;14.45;10.38;;;;;;;;;;6161807;23;20205;-88
2022/09/01 03:37:25;;;;;;;17.23;10.63;;;;;;;;;;6162648;23;20526;-90
2022/09/01 03:40:32;;;;;;;21.60;12.07;;;;;;;;;;6146917;23;20180;-87
2022/09/01 03:43:37;;;;;;;17.95;10.95;;;;;;;;;;6145495;23;20176;-86
2022/09/01 03:46:44;;;;;;;17.98;11.43;;;;;;;;;;6146274;23;20277;-87
2022/09/01 03:49:49;;;;;;;19.63;11.65;;;;;;;;;;6146364;23;20183;-87
2022/09/01 03:52:57;;;;;;;20.52;11.57;;;;;;;;;;6145522;23;20172;-89
2022/09/01 03:56:04;;;;;;;17.30;11.02;;;;;;;;;;6147142;23;20244;-88
2022/09/01 03:59:15;;;;;;;18.30;11.90;;;;;;;;;;6148296;23;20253;-89
2022/09/01 04:02:29;;;;;;;17.85;11.50;;;;;;;;;;6146933;23;20244;-88
2022/09/01 04:05:36;;;;;;;17.92;10.50;;;;;;;;;;6147559;23;20168;-87
2022/09/01 04:08:42;;;;;;;18.10;10.88;;;;;;;;;;6147031;23;20216;-88
2022/09/01 04:11:47;;;;;;;14.30;10.25;;;;;;;;;;6147814;23;20509;-86
2022/09/01 04:14:54;;;;;;;17.13;10.18;;;;;;;;;;6147761;23;20216;-88
2022/09/01 04:18:09;;;;;;;17.25;10.13;;;;;;;;;;6148266;23;20592;-87
2022/09/01 04:21:18;;;;;;;16.58;11.15;;;;;;;;;;6147714;23;20559;-87
2022/09/01 04:24:26;;;;;;;20.10;10.70;;;;;;;;;;6148627;23;20229;-90
2022/09/01 04:27:32;;;;;;;19.13;10.50;;;;;;;;;;6147663;23;20250;-88
2022/09/01 04:30:39;;;;;;;18.63;10.68;;;;;;;;;;6148386;23;20219;-86
2022/09/01 04:33:48;;;;;;;17.02;10.15;;;;;;;;;;6147155;23;20227;-87
2022/09/01 04:36:54;;;;;;;17.88;9.35;;;;;;;;;;6149038;23;20713;-89
2022/09/01 04:39:59;;;;;;;15.93;10.05;;;;;;;;;;6166438;23;20168;-89
2022/09/01 04:43:06;;;;;;;18.15;9.80;;;;;;;;;;6147472;23;20176;-88
2022/09/01 04:46:11;;;;;;;19.35;9.93;;;;;;;;;;6165080;23;20169;-88
2022/09/01 04:49:25;;;;;;;17.17;10.50;;;;;;;;;;6165610;23;20215;-88
2022/09/01 04:52:30;;;;;;;16.83;10.25;;;;;;;;;;6147297;23;20172;-89
2022/09/01 04:55:42;;;;;;;16.27;10.38;;;;;;;;;;6147896;23;20172;-89
2022/09/01 04:58:48;;;;;;;12.90;9.20;;;;;;;;;;6147840;23;20243;-88
2022/09/01 05:01:54;;;;;;;16.27;9.35;;;;;;;;;;6166662;23;20226;-89
2022/09/01 05:05:02;;;;;;;13.98;8.05;;;;;;;;;;6163830;23;20288;-86
2022/09/01 05:08:12;;;;;;;18.00;9.70;;;;;;;;;;6148575;23;20207;-88
2022/09/01 05:11:18;;;;;;;13.68;8.73;;;;;;;;;;6148345;23;20223;-88
2022/09/01 05:14:25;;;;;;;13.25;7.90;;;;;;;;;;6163767;23;20215;-88
2022/09/01 05:17:31;;;;;;;11.55;8.43;;;;;;;;;;6150170;23;20625;-89
2022/09/01 05:20:42;;;;;;;11.75;7.50;;;;;;;;;;6146627;23;20563;-86
2022/09/01 05:23:48;;;;;;;13.65;8.15;;;;;;;;;;6164641;23;20296;-88
2022/09/01 05:26:53;;;;;;;11.45;7.80;;;;;;;;;;6165036;23;20172;-88
2022/09/01 05:30:01;;;;;;;12.52;7.30;;;;;;;;;;6167299;23;20561;-88
2022/09/01 05:33:10;;;;;;;10.40;7.07;;;;;;;;;;6162113;23;20172;-89
2022/09/01 05:36:18;;;;;;;13.45;6.97;;;;;;;;;;6145781;23;20173;-87
2022/09/01 05:39:24;;;;;;;9.63;6.70;;;;;;;;;;6146852;23;20284;-87
2022/09/01 05:42:30;;;;;;;10.70;6.85;;;;;;;;;;6147905;23;20172;-88
2022/09/01 05:45:37;;;;;;;12.13;6.40;;;;;;;;;;6150830;23;20669;-87
2022/09/01 05:48:43;;;;;;;11.07;6.82;;;;;;;;;;6149783;23;20195;-89
2022/09/01 05:51:51;;;;;;;14.43;6.40;;;;;;;;;;6147884;23;20173;-88
2022/09/01 05:55:00;;;;;;;11.48;6.22;;;;;;;;;;6147040;23;20201;-87
2022/09/01 05:58:12;;;;;;;8.13;4.97;;;;;;;;;;6144463;23;20177;-88
2022/09/01 06:01:21;;;;;;;14.98;6.18;;;;;;;;;;6145724;23;20172;-90
2022/09/01 06:04:28;;;;;;;9.13;6.10;;;;;;;;;;6143949;23;20246;-87
2022/09/01 06:07:43;;;;;;;8.95;5.95;;;;;;;;;;6146216;23;20277;-86
2022/09/01 06:10:49;;;;;;;7.93;6.00;;;;;;;;;;6146240;23;20168;-88
2022/09/01 06:13:57;;;;;;;11.93;6.53;;;;;;;;;;6145474;23;20173;-88
2022/09/01 06:17:03;;;;;;;9.80;6.60;;;;;;;;;;6146219;23;20184;-87
2022/09/01 06:20:09;;;;;;;15.50;6.72;;;;;;;;;;6147845;23;20636;-86
2022/09/01 06:23:17;;;;;;;10.02;6.43;;;;;;;;;;6149582;23;20215;-89
2022/09/01 06:26:26;;;;;;;54.63;27.35;;;;;;;;;;6149122;23;20168;-88
2022/09/01 06:29:40;;;;;;;15.32;9.30;;;;;;;;;;6144129;23;20196;-88
2022/09/01 06:32:45;;;;;;;9.90;6.75;;;;;;;;;;6146924;23;20168;-87
2022/09/01 06:35:51;;;;;;;9.25;6.82;;;;;;;;;;6146751;23;20165;-88
2022/09/01 06:39:00;;;;;;;9.68;6.60;;;;;;;;;;6163358;23;20216;-87
2022/09/01 06:42:08;;;;;;;9.40;6.05;;;;;;;;;;6164680;23;20152;-87
2022/09/01 06:45:25;;;;;;;9.32;6.00;;;;;;;;;;6168868;23;20495;-87
2022/09/01 06:48:31;;;;;;;13.07;6.22;;;;;;;;;;6165798;23;20196;-87
2022/09/01 06:51:48;;;;;;;10.93;5.63;;;;;;;;;;6165442;23;20556;-87
2022/09/01 06:54:56;;;;;;;11.60;5.65;;;;;;;;;;6166814;23;20270;-87
2022/09/01 06:58:04;;;;;;;8.38;6.20;;;;;;;;;;6165593;23;20616;-89
2022/09/01 07:01:13;;;;;;;6.93;5.25;;;;;;;;;;6163119;23;20180;-88
2022/09/01 07:04:20;;;;;;;8.30;5.25;;;;;;;;;;6162338;23;20172;-89
2022/09/01 07:07:33;;;;;;;8.40;4.78;;;;;;;;;;6161724;23;20518;-86
2022/09/01 07:11:26;;;;;;;10.32;4.38;;;;;;;;;;6073479;23;20254;-89
2022/09/01 07:14:31;;;;;;;7.53;4.60;;;;;;;;;;6059094;23;20349;-89
2022/09/01 07:17:40;;;;;;;6.47;4.72;;;;;;;;;;6163905;23;20230;-87
2022/09/01 07:20:47;;;;;;;6.07;4.22;;;;;;;;;;6160537;23;20165;-87
2022/09/01 07:23:52;;;;;;;4.80;3.58;;;;;;;;;;6162964;23;20168;-89
2022/09/01 07:26:58;;;;;;;6.13;3.42;;;;;;;;;;6163457;23;20170;-88
2022/09/01 07:30:07;;;;;;;4.93;3.58;;;;;;;;;;6165207;23;20332;-87
2022/09/01 07:33:13;;;;;;;4.03;3.10;;;;;;;;;;6164714;23;20240;-87
2022/09/01 07:36:19;;;;;;;7.72;3.05;;;;;;;;;;6163389;23;20176;-86
2022/09/01 07:39:24;;;;;;;5.47;3.00;;;;;;;;;;6165916;23;20160;-88
2022/09/01 07:42:56;;;;;;;7.28;2.85;;;;;;;;;;6165668;23;20228;-86
2022/09/01 07:46:33;;;;;;;7.22;2.78;;;;;;;;;;6163461;23;20223;-88
2022/09/01 07:49:39;;;;;;;3.58;2.25;;;;;;;;;;6162712;23;20196;-87
2022/09/01 07:52:48;;;;;;;3.05;2.17;;;;;;;;;;6163666;23;20177;-88
2022/09/01 07:55:54;;;;;;;4.75;2.20;;;;;;;;;;6164117;23;20258;-86
2022/09/01 07:59:01;;;;;;;5.30;2.92;;;;;;;;;;6163723;23;20240;-87
2022/09/01 08:02:06;;;;;;;4.22;2.30;;;;;;;;;;6165139;23;20169;-87
2022/09/01 08:05:14;;;;;;;4.50;2.22;;;;;;;;;;6164895;23;20169;-88
2022/09/01 08:08:20;;;;;;;3.40;2.13;;;;;;;;;;6163264;23;20222;-88
2022/09/01 08:11:27;;;;;;;5.10;2.00;;;;;;;;;;6167121;23;20189;-87
2022/09/01 08:14:34;;;;;;;4.60;2.22;;;;;;;;;;6165128;23;20176;-88
2022/09/01 08:17:42;;;;;;;4.90;2.00;;;;;;;;;;6167894;23;20172;-89
2022/09/01 08:20:50;;;;;;;3.85;2.20;;;;;;;;;;6162276;23;20180;-88
2022/09/01 08:24:08;;;;;;;4.30;2.10;;;;;;;;;;6163597;23;20165;-90
2022/09/01 08:27:14;;;;;;;5.53;2.78;;;;;;;;;;6166111;23;20193;-88
2022/09/01 08:30:21;;;;;;;3.88;2.13;;;;;;;;;;6166294;23;20251;-88
2022/09/01 08:33:26;;;;;;;3.22;2.15;;;;;;;;;;6167168;23;20168;-88
2022/09/01 08:36:32;;;;;;;7.32;1.83;;;;;;;;;;6167043;23;20222;-88
2022/09/01 08:39:37;;;;;;;4.25;1.90;;;;;;;;;;6168016;23;20187;-87
2022/09/01 08:42:48;;;;;;;3.08;1.90;;;;;;;;;;6166159;23;20235;-88
2022/09/01 08:46:02;;;;;;;4.30;1.85;;;;;;;;;;6170208;23;20173;-88
2022/09/01 08:52:54;;;;;;;2.45;1.90;;;;;;;;;;6153579;23;20188;-88
2022/09/01 08:56:00;;;;;;;3.92;1.73;;;;;;;;;;6168548;23;20153;-91
2022/09/01 08:59:07;;;;;;;3.25;1.98;;;;;;;;;;6167803;23;20172;-91
2022/09/01 09:02:39;;;;;;;4.13;1.88;;;;;;;;;;6165805;23;20612;-90
2022/09/01 09:05:50;;;;;;;3.47;1.65;;;;;;;;;;6169030;23;20176;-86
2022/09/01 09:08:58;;;;;;;4.72;2.38;;;;;;;;;;6170811;23;20169;-87
2022/09/01 09:12:10;;;;;;;6.85;1.80;;;;;;;;;;6167841;23;20167;-88
2022/09/01 09:15:18;;;;;;;3.38;1.92;;;;;;;;;;6166900;23;20188;-88
2022/09/01 09:18:28;;;;;;;2.97;1.60;;;;;;;;;;6168298;23;20168;-87
2022/09/01 09:21:34;;;;;;;4.13;1.70;;;;;;;;;;6166684;23;20200;-88
2022/09/01 09:24:49;;;;;;;2.53;1.33;;;;;;;;;;6166260;23;20175;-89
2022/09/01 09:27:53;;;;;;;2.83;1.65;;;;;;;;;;6167858;23;20387;-89
2022/09/01 09:31:13;;;;;;;2.83;1.60;;;;;;;;;;6169130;23;20236;-88
2022/09/01 09:34:31;;;;;;;2.75;1.63;;;;;;;;;;6168187;23;20172;-88
2022/09/01 09:37:36;;;;;;;4.45;1.80;;;;;;;;;;6171862;23;20199;-88
2022/09/01 09:40:56;;;;;;;4.28;1.90;;;;;;;;;;6169741;23;20220;-89
2022/09/01 09:44:02;;;;;;;3.00;1.60;;;;;;;;;;6166632;23;20177;-88
2022/09/01 09:47:32;;;;;;;4.07;1.60;;;;;;;;;;6168647;23;20159;-87
2022/09/01 09:50:42;;;;;;;3.75;1.83;;;;;;;;;;6170210;23;20164;-88
2022/09/01 09:53:47;;;;;;;4.82;2.20;;;;;;;;;;6171692;23;20620;-87
2022/09/01 09:57:05;;;;;;;7.22;1.90;;;;;;;;;;6167630;23;20172;-89
2022/09/01 10:00:19;;;;;;;4.38;1.85;;;;;;;;;;6163486;23;20197;-89
2022/09/01 10:03:35;;;;;;;4.75;2.17;;;;;;;;;;6162071;23;20684;-89
2022/09/01 10:06:44;;;;;;;5.13;1.70;;;;;;;;;;6165270;23;20173;-89
2022/09/01 10:09:49;;;;;;;7.07;1.80;;;;;;;;;;6165045;23;20346;-89
2022/09/01 10:12:54;;;;;;;3.30;1.70;;;;;;;;;;6163356;23;20177;-89
2022/09/01 10:16:01;;;;;;;4.88;2.20;;;;;;;;;;6163006;23;20177;-89
2022/09/01 10:19:07;;;;;;;3.97;1.67;;;;;;;;;;6161995;23;20667;-88
2022/09/01 10:22:14;;;;;;;4.47;1.75;;;;;;;;;;6166051;23;20153;-88
2022/09/01 10:25:20;;;;;;;3.17;2.08;;;;;;;;;;6162938;23;20220;-88
2022/09/01 10:28:26;;;;;;;7.28;2.80;;;;;;;;;;6162315;23;20177;-87
2022/09/01 10:31:32;;;;;;;4.63;2.15;;;;;;;;;;6163284;23;20248;-90
2022/09/01 10:34:38;;;;;;;6.82;2.25;;;;;;;;;;6160953;23;20216;-88
2022/09/01 10:37:44;;;;;;;4.07;2.60;;;;;;;;;;6166781;23;20284;-86
2022/09/01 10:41:05;;;;;;;5.57;2.30;;;;;;;;;;6161993;23;20192;-88
2022/09/01 10:44:12;;;;;;;3.53;2.45;;;;;;;;;;6164599;23;20168;-87
2022/09/01 10:47:28;;;;;;;6.13;2.15;;;;;;;;;;6161730;23;20180;-88
2022/09/01 10:50:33;;;;;;;4.78;2.03;;;;;;;;;;6162135;23;20176;-88
2022/09/01 10:53:40;;;;;;;3.17;2.03;;;;;;;;;;6161858;23;20172;-87
2022/09/01 10:56:47;;;;;;;4.22;2.03;;;;;;;;;;6162446;23;20204;-89
2022/09/01 10:59:56;;;;;;;6.25;2.00;;;;;;;;;;6163524;23;20180;-90
2022/09/01 11:03:20;;;;;;;3.45;1.92;;;;;;;;;;6162311;23;20220;-87
2022/09/01 11:06:44;;;;;;;3.50;2.10;;;;;;;;;;6162639;23;20172;-88
2022/09/01 11:10:08;;;;;;;3.15;2.10;;;;;;;;;;6163395;23;20215;-87
2022/09/01 11:13:32;;;;;;;2.90;1.77;;;;;;;;;;6164206;23;20173;-88
2022/09/01 11:16:37;;;;;;;6.80;2.40;;;;;;;;;;6162837;23;20172;-88
2022/09/01 11:19:45;;;;;;;6.72;1.95;;;;;;;;;;6163382;23;20220;-87
2022/09/01 11:22:59;;;;;;;4.25;2.15;;;;;;;;;;6165799;23;20176;-89
2022/09/01 11:26:27;;;;;;;5.57;2.20;;;;;;;;;;6164829;23;20175;-88
2022/09/01 11:29:52;;;;;;;5.28;2.20;;;;;;;;;;6162127;23;20632;-88
2022/09/01 11:32:59;;;;;;;3.72;2.00;;;;;;;;;;6164788;23;20176;-88
2022/09/01 11:36:05;;;;;;;3.45;2.10;;;;;;;;;;6163095;23;20280;-87
2022/09/01 11:39:28;;;;;;;3.58;1.77;;;;;;;;;;6162875;23;20624;-87
2022/09/01 11:42:42;;;;;;;8.48;2.10;;;;;;;;;;6163030;23;20177;-87
2022/09/01 11:45:56;;;;;;;2.00;1.55;;;;;;;;;;6163172;23;20216;-88
2022/09/01 11:49:04;;;;;;;4.80;1.90;;;;;;;;;;6161991;23;20173;-88
2022/09/01 11:52:15;;;;;;;3.70;1.90;;;;;;;;;;6162929;23;20281;-87
2022/09/01 11:55:28;;;;;;;5.18;2.30;;;;;;;;;;6162657;23;20172;-87
2022/09/01 11:58:38;;;;;;;4.35;2.40;;;;;;;;;;6162446;23;20224;-88
2022/09/01 12:01:43;;;;;;;2.67;1.80;;;;;;;;;;6161654;23;20192;-90
2022/09/01 12:04:49;;;;;;;4.57;1.95;;;;;;;;;;6164288;23;20228;-87
2022/09/01 12:07:54;;;;;;;8.60;2.00;;;;;;;;;;6163772;23;20226;-88
2022/09/01 12:11:04;;;;;;;5.90;1.85;;;;;;;;;;6164605;23;20168;-87
2022/09/01 12:14:11;;;;;;;4.57;2.20;;;;;;;;;;6167016;23;20165;-89
2022/09/01 12:17:21;;;;;;;6.10;2.55;;;;;;;;;;6165946;23;20164;-88
2022/09/01 12:20:28;;;;;;;4.03;2.00;;;;;;;;;;6163641;23;20656;-86
2022/09/01 12:23:34;;;;;;;3.85;2.10;;;;;;;;;;6165139;23;20193;-87
2022/09/01 12:26:39;;;;;;;4.07;2.05;;;;;;;;;;6163535;23;20219;-88
2022/09/01 12:29:45;;;;;;;4.13;2.20;;;;;;;;;;6163990;23;20188;-87
2022/09/01 12:32:51;;;;;;;5.68;2.38;;;;;;;;;;6164639;23;20169;-88
2022/09/01 12:36:11;;;;;;;3.15;2.05;;;;;;;;;;6166365;23;20172;-88
2022/09/01 12:39:21;;;;;;;2.17;1.60;;;;;;;;;;6165412;23;20169;-88
2022/09/01 12:42:28;;;;;;;4.30;2.30;;;;;;;;;;6166966;23;20177;-88
2022/09/01 12:45:42;;;;;;;4.60;2.15;;;;;;;;;;6165871;23;20168;-87
2022/09/01 12:48:47;;;;;;;3.17;1.70;;;;;;;;;;6165391;23;20186;-88
2022/09/01 12:52:06;;;;;;;2.03;1.60;;;;;;;;;;6165239;23;20168;-88
2022/09/01 12:55:16;;;;;;;4.50;1.92;;;;;;;;;;6162486;23;20236;-88
2022/09/01 12:58:23;;;;;;;2.42;1.60;;;;;;;;;;6163279;23;20234;-86
2022/09/01 13:01:32;;;;;;;9.75;2.33;;;;;;;;;;6165867;23;20212;-88
2022/09/01 13:04:37;;;;;;;3.95;1.83;;;;;;;;;;6165558;23;20191;-88
2022/09/01 13:07:43;;;;;;;3.92;1.42;;;;;;;;;;6166045;23;20164;-88
2022/09/01 13:10:49;;;;;;;2.75;1.35;;;;;;;;;;6164720;23;20173;-89
2022/09/01 13:13:54;;;;;;;3.28;1.60;;;;;;;;;;6164157;23;20164;-87
2022/09/01 13:17:01;;;;;;;3.53;1.58;;;;;;;;;;6165451;23;20156;-89
2022/09/01 13:20:06;;;;;;;6.97;1.70;;;;;;;;;;6166424;23;20169;-88
2022/09/01 13:23:12;;;;;;;3.45;1.60;;;;;;;;;;6166852;23;20612;-89
2022/09/01 13:26:17;;;;;;;17.52;10.18;;;;;;;;;;6167485;23;20173;-88
2022/09/01 13:29:22;;;;;;;3.33;1.70;;;;;;;;;;6164389;23;20332;-86
2022/09/01 13:32:29;;;;;;;4.22;1.70;;;;;;;;;;6165984;23;20201;-89
2022/09/01 13:35:34;;;;;;;4.80;1.95;;;;;;;;;;6164637;23;20173;-88
2022/09/01 13:38:39;;;;;;;3.20;1.40;;;;;;;;;;6165068;23;20263;-87
2022/09/01 13:41:45;;;;;;;2.35;1.60;;;;;;;;;;6165454;23;20528;-89
2022/09/01 13:44:51;;;;;;;5.45;1.70;;;;;;;;;;6169376;23;20168;-89
2022/09/01 13:47:59;;;;;;;3.05;1.67;;;;;;;;;;6164540;23;20234;-87
2022/09/01 13:51:04;;;;;;;6.88;1.85;;;;;;;;;;6167715;23;20156;-88
2022/09/01 13:54:09;;;;;;;3.53;1.60;;;;;;;;;;6164119;23;20196;-88
2022/09/01 13:57:15;;;;;;;2.80;1.58;;;;;;;;;;6165336;23;20229;-87
2022/09/01 14:00:23;;;;;;;8.25;1.80;;;;;;;;;;6164117;23;20632;-88
2022/09/01 14:03:30;;;;;;;4.57;1.75;;;;;;;;;;6162486;23;20168;-86
2022/09/01 14:06:40;;;;;;;10.25;1.80;;;;;;;;;;6165225;23;20218;-89
2022/09/01 14:09:45;;;;;;;6.70;1.92;;;;;;;;;;6166454;23;20636;-88
2022/09/01 14:12:50;;;;;;;2.72;1.30;;;;;;;;;;6167454;23;20176;-88
2022/09/01 14:15:55;;;;;;;2.60;1.20;;;;;;;;;;6162717;23;20176;-88
2022/09/01 14:19:02;;;;;;;3.25;1.27;;;;;;;;;;6161258;23;20285;-88
2022/09/01 14:22:08;;;;;;;2.83;1.27;;;;;;;;;;6162828;23;20196;-88
2022/09/01 14:25:13;;;;;;;2.35;1.30;;;;;;;;;;6161198;23;20269;-88
2022/09/01 14:28:19;;;;;;;2.92;1.10;;;;;;;;;;6164263;23;20168;-88
2022/09/01 14:31:24;;;;;;;4.03;1.20;;;;;;;;;;6162016;23;20244;-88
2022/09/01 14:34:30;;;;;;;2.25;1.20;;;;;;;;;;6163846;23;20239;-87
2022/09/01 14:37:38;;;;;;;3.33;1.40;;;;;;;;;;6162750;23;20254;-88
2022/09/01 14:40:44;;;;;;;1.95;1.30;;;;;;;;;;6166277;23;20611;-88
2022/09/01 14:43:49;;;;;;;3.42;1.20;;;;;;;;;;6165567;23;20169;-89
2022/09/01 14:46:55;;;;;;;5.03;1.50;;;;;;;;;;6166551;23;20171;-88
2022/09/01 14:50:08;;;;;;;3.78;1.42;;;;;;;;;;6166681;23;20236;-88
2022/09/01 14:53:13;;;;;;;4.38;1.42;;;;;;;;;;6166228;23;20176;-88
2022/09/01 14:56:19;;;;;;;4.85;1.30;;;;;;;;;;6165526;23;20168;-89
2022/09/01 14:59:24;;;;;;;4.53;1.70;;;;;;;;;;6165687;23;20169;-87
2022/09/01 15:02:30;;;;;;;2.33;1.45;;;;;;;;;;6165498;23;20200;-87
2022/09/01 15:05:38;;;;;;;2.72;1.50;;;;;;;;;;6164804;23;20264;-86
2022/09/01 15:08:44;;;;;;;3.15;1.45;;;;;;;;;;6165267;23;20212;-88
2022/09/01 15:11:49;;;;;;;6.05;1.60;;;;;;;;;;6165510;23;20205;-88
2022/09/01 15:14:54;;;;;;;2.70;1.35;;;;;;;;;;6166765;23;20176;-89
2022/09/01 15:18:00;;;;;;;5.07;1.20;;;;;;;;;;6166212;23;20171;-88
2022/09/01 15:21:08;;;;;;;2.95;1.30;;;;;;;;;;6165776;23;20191;-89
2022/09/01 15:24:13;;;;;;;3.33;1.40;;;;;;;;;;6165942;23;20244;-89
2022/09/01 15:27:18;;;;;;;3.95;1.27;;;;;;;;;;6165568;23;20172;-88
2022/09/01 15:30:24;;;;;;;1.95;1.40;;;;;;;;;;6164636;23;20168;-88
2022/09/01 15:33:29;;;;;;;1.88;1.48;;;;;;;;;;6164884;23;20670;-87
2022/09/01 15:36:38;;;;;;;5.70;1.40;;;;;;;;;;6167653;23;20224;-88
2022/09/01 15:39:44;;;;;;;4.35;1.50;;;;;;;;;;6169745;23;20514;-87
2022/09/01 15:42:49;;;;;;;2.38;1.38;;;;;;;;;;6166184;23;20631;-88
2022/09/01 15:45:56;;;;;;;2.75;1.13;;;;;;;;;;6167006;23;20171;-89
2022/09/01 15:49:05;;;;;;;3.78;1.65;;;;;;;;;;6166253;23;20172;-89
2022/09/01 15:52:11;;;;;;;3.30;1.40;;;;;;;;;;6168742;23;20168;-89
2022/09/01 15:55:16;;;;;;;1.67;1.20;;;;;;;;;;6167414;23;20168;-89
2022/09/01 15:58:21;;;;;;;6.25;1.52;;;;;;;;;;6163928;23;20199;-89
2022/09/01 16:01:27;;;;;;;3.25;1.50;;;;;;;;;;6166639;23;20188;-89
2022/09/01 16:04:35;;;;;;;5.07;1.75;;;;;;;;;;6164651;23;20293;-88
2022/09/01 16:07:41;;;;;;;2.88;1.38;;;;;;;;;;6164622;23;20172;-89
2022/09/01 16:10:47;;;;;;;3.92;1.27;;;;;;;;;;6167175;23;20610;-89
2022/09/01 16:13:52;;;;;;;3.60;1.40;;;;;;;;;;6165097;23;20216;-90
2022/09/01 16:17:03;;;;;;;5.25;1.60;;;;;;;;;;6167098;23;20173;-89
2022/09/01 16:20:10;;;;;;;4.38;1.58;;;;;;;;;;6163904;23;20173;-88
2022/09/01 16:23:19;;;;;;;8.18;2.70;;;;;;;;;;6166199;23;20227;-89
2022/09/01 16:26:24;;;;;;;4.90;1.95;;;;;;;;;;6165583;23;20168;-89
2022/09/01 16:29:33;;;;;;;3.70;1.75;;;;;;;;;;6164809;23;20168;-88
2022/09/01 16:32:39;;;;;;;6.75;1.92;;;;;;;;;;6165649;23;20200;-89
2022/09/01 16:35:50;;;;;;;7.20;1.60;;;;;;;;;;6164241;23;20172;-88
2022/09/01 16:39:00;;;;;;;3.05;1.80;;;;;;;;;;6165918;23;20236;-88
2022/09/01 16:42:14;;;;;;;3.22;1.52;;;;;;;;;;6165361;23;20200;-87
2022/09/01 16:45:26;;;;;;;2.35;1.40;;;;;;;;;;6162117;23;20236;-87
2022/09/01 16:48:36;;;;;;;4.82;1.52;;;;;;;;;;6166431;23;20196;-87
2022/09/01 16:51:47;;;;;;;4.97;1.75;;;;;;;;;;6164220;23;20172;-86
2022/09/01 16:55:04;;;;;;;2.72;1.60;;;;;;;;;;6164429;23;20188;-89
2022/09/01 16:58:14;;;;;;;4.35;1.73;;;;;;;;;;6164298;23;20180;-89
2022/09/01 17:01:24;;;;;;;3.38;1.60;;;;;;;;;;6164275;23;20196;-87
2022/09/01 17:04:33;;;;;;;2.50;1.38;;;;;;;;;;6163667;23;20168;-87
2022/09/01 17:07:43;;;;;;;3.63;1.58;;;;;;;;;;6164344;23;20200;-86
2022/09/01 17:10:52;;;;;;;3.25;1.83;;;;;;;;;;6166231;23;20212;-88
2022/09/01 17:13:57;;;;;;;4.43;1.60;;;;;;;;;;6165620;23;20188;-87
2022/09/01 17:17:06;;;;;;;3.22;1.70;;;;;;;;;;6164716;23;20176;-85
2022/09/01 17:20:15;;;;;;;3.05;1.67;;;;;;;;;;6166266;23;20320;-87
2022/09/01 17:23:26;;;;;;;4.18;1.70;;;;;;;;;;6166299;23;20196;-85
2022/09/01 17:26:34;;;;;;;5.03;1.80;;;;;;;;;;6167228;23;20168;-89
2022/09/01 17:29:43;;;;;;;8.75;1.67;;;;;;;;;;6167120;23;20184;-86
2022/09/01 17:32:54;;;;;;;4.07;1.60;;;;;;;;;;6164487;23;20172;-87
2022/09/01 17:36:04;;;;;;;3.85;1.90;;;;;;;;;;6167375;23;20172;-88
2022/09/01 17:39:13;;;;;;;2.83;1.80;;;;;;;;;;6167171;23;20173;-86
2022/09/01 17:42:26;;;;;;;4.00;1.77;;;;;;;;;;6168113;23;20244;-89
2022/09/01 17:45:34;;;;;;;5.28;1.90;;;;;;;;;;6166135;23;20172;-88
2022/09/01 17:48:44;;;;;;;3.53;1.98;;;;;;;;;;6165223;23;20152;-86
2022/09/01 17:51:53;;;;;;;5.25;1.95;;;;;;;;;;6164660;23;20234;-88
2022/09/01 17:55:00;;;;;;;5.57;2.60;;;;;;;;;;6163567;23;20518;-85
2022/09/01 17:58:09;;;;;;;10.35;4.68;;;;;;;;;;6163401;23;20627;-89
2022/09/01 18:01:17;;;;;;;5.80;3.20;;;;;;;;;;6161520;23;20300;-88
2022/09/01 18:04:34;;;;;;;6.20;2.70;;;;;;;;;;6165006;23;20224;-86
2022/09/01 18:07:49;;;;;;;4.38;1.98;;;;;;;;;;6165872;23;20244;-86
2022/09/01 18:10:57;;;;;;;4.72;3.00;;;;;;;;;;6164888;23;20169;-88
2022/09/01 18:14:06;;;;;;;5.47;2.22;;;;;;;;;;6162566;23;20165;-87
2022/09/01 18:17:15;;;;;;;6.25;2.47;;;;;;;;;;6165113;23;20233;-87
2022/09/01 18:20:23;;;;;;;7.70;2.88;;;;;;;;;;6165662;23;20168;-87
2022/09/01 18:23:30;;;;;;;5.18;2.40;;;;;;;;;;6164477;23;20220;-88
2022/09/01 18:26:37;;;;;;;6.95;2.80;;;;;;;;;;6167561;23;20212;-89
2022/09/01 18:29:44;;;;;;;4.30;2.33;;;;;;;;;;6163398;23;20260;-88
2022/09/01 18:32:51;;;;;;;5.95;2.85;;;;;;;;;;6163081;23;20164;-87
2022/09/01 18:36:03;;;;;;;11.40;4.47;;;;;;;;;;6163575;23;20169;-87
2022/09/01 18:39:12;;;;;;;11.57;3.85;;;;;;;;;;6165213;23;20221;-87
2022/09/01 18:42:23;;;;;;;4.80;3.15;;;;;;;;;;6163415;23;20204;-88
2022/09/01 18:45:32;;;;;;;7.78;3.28;;;;;;;;;;6162313;23;20180;-83
2022/09/01 18:48:47;;;;;;;8.05;2.90;;;;;;;;;;6163266;23;20180;-88